Time;durP1;ratioP1;P1;durP2;ratioP2;P2;SDS_P1;SDS_P2;PMS_P1;PMS_P2;Temp;Humidity;BMP_temperature;BMP_pressure;BME280_temperature;BME280_humidity;BME280_pressure;Samples;Min_cycle;Max_cycle;Signal;HPM_P1;HPM_P2
2023/11/13 09:08:16;;;;;;;8.23;1.23;;;12.60;99.90;;;;;;4940751;23;20237;-77
2023/11/13 09:10:44;;;;;;;3.40;1.03;;;12.60;99.90;;;;;;4917421;29;20206;-74
2023/11/13 09:13:11;;;;;;;2.00;1.07;;;12.70;99.90;;;;;;4918079;29;20304;-70
2023/11/13 09:15:40;;;;;;;2.80;1.00;;;12.70;99.90;;;;;;4908358;29;20324;-71
2023/11/13 09:18:08;;;;;;;11.67;1.30;;;12.80;99.90;;;;;;4899077;29;20214;-71
2023/11/13 09:20:35;;;;;;;6.67;1.10;;;12.90;99.90;;;;;;4899035;29;20214;-71
2023/11/13 09:23:04;;;;;;;5.67;2.20;;;13.00;99.90;;;;;;4899298;29;20210;-71
2023/11/13 09:25:32;;;;;;;3.83;1.07;;;13.10;99.90;;;;;;4898858;29;20317;-71
2023/11/13 09:27:59;;;;;;;3.43;1.03;;;13.20;99.90;;;;;;4899047;29;20297;-72
2023/11/13 09:30:27;;;;;;;5.17;1.20;;;13.20;99.90;;;;;;4898882;29;20238;-72
2023/11/13 09:32:55;;;;;;;8.00;1.83;;;13.30;99.90;;;;;;4898846;29;20206;-71
2023/11/13 09:35:22;;;;;;;5.63;1.20;;;13.40;99.90;;;;;;4898611;29;20230;-75
2023/11/13 09:37:51;;;;;;;3.43;1.30;;;13.40;99.90;;;;;;4898902;29;20217;-70
2023/11/13 09:40:18;;;;;;;5.53;1.10;;;13.40;99.90;;;;;;4898618;29;20304;-76
2023/11/13 09:42:51;;;;;;;4.53;1.17;;;13.50;99.90;;;;;;4898517;29;20749;-73
2023/11/13 09:45:19;;;;;;;6.83;1.40;;;13.60;99.90;;;;;;4898257;29;20230;-71
2023/11/13 09:47:46;;;;;;;5.97;1.20;;;13.60;99.90;;;;;;4898307;29;20214;-70
2023/11/13 09:50:17;;;;;;;4.00;1.00;;;13.60;99.90;;;;;;4898757;29;20210;-80
2023/11/13 09:52:48;;;;;;;5.17;1.30;;;13.60;99.90;;;;;;4898750;29;20312;-74
2023/11/13 09:55:18;;;;;;;6.20;1.17;;;13.70;99.90;;;;;;4897860;29;20237;-71
2023/11/13 09:57:48;;;;;;;5.23;0.97;;;13.70;99.90;;;;;;4898348;29;20221;-71
2023/11/13 10:00:18;;;;;;;5.17;1.20;;;13.70;99.90;;;;;;4898532;29;20210;-73
2023/11/13 10:02:46;;;;;;;5.87;0.90;;;13.80;99.90;;;;;;4898004;29;20555;-70
2023/11/13 10:05:15;;;;;;;9.93;1.30;;;13.80;99.90;;;;;;4897917;29;20237;-71
2023/11/13 10:07:47;;;;;;;4.37;1.23;;;13.80;99.90;;;;;;4898261;29;20258;-74
2023/11/13 10:10:18;;;;;;;3.67;1.20;;;13.90;99.90;;;;;;4897379;29;20306;-70
2023/11/13 10:12:48;;;;;;;6.37;1.00;;;14.00;99.90;;;;;;4897965;29;20289;-73
2023/11/13 10:15:15;;;;;;;8.13;1.13;;;14.00;99.90;;;;;;4878568;29;20616;-71
2023/11/13 10:17:43;;;;;;;4.30;1.10;;;14.00;99.90;;;;;;4877612;29;20239;-70
2023/11/13 10:20:11;;;;;;;3.37;1.13;;;14.00;99.90;;;;;;4877804;29;20682;-74
2023/11/13 10:22:39;;;;;;;4.17;0.90;;;14.10;99.90;;;;;;4876922;29;20211;-72
2023/11/13 10:25:09;;;;;;;3.73;1.03;;;14.10;99.90;;;;;;4894821;29;20266;-73
2023/11/13 10:27:39;;;;;;;8.50;1.40;;;14.10;99.90;;;;;;4896580;29;20264;-71
2023/11/13 10:30:10;;;;;;;6.33;1.40;;;14.10;99.90;;;;;;4895753;29;20670;-76
2023/11/13 10:32:37;;;;;;;6.03;1.40;;;14.20;99.90;;;;;;4896524;29;20669;-73
2023/11/13 10:35:09;;;;;;;2.37;0.90;;;14.30;99.90;;;;;;4896226;29;20230;-74
2023/11/13 10:37:38;;;;;;;3.40;1.00;;;14.30;99.90;;;;;;4895790;29;20707;-74
2023/11/13 10:40:11;;;;;;;6.53;1.57;;;14.30;99.90;;;;;;4896597;29;20218;-74
2023/11/13 10:42:38;;;;;;;4.90;1.20;;;14.40;99.90;;;;;;4889692;29;20214;-74
2023/11/13 10:45:12;;;;;;;8.43;1.50;;;14.40;99.90;;;;;;4894729;29;20234;-73
2023/11/13 10:47:48;;;;;;;5.13;0.93;;;14.40;99.90;;;;;;4895464;29;20215;-76
2023/11/13 10:50:19;;;;;;;2.37;1.00;;;14.40;99.90;;;;;;4895980;29;20296;-73
2023/11/13 10:52:49;;;;;;;2.60;1.00;;;14.40;99.90;;;;;;4896133;29;20217;-75
2023/11/13 10:55:19;;;;;;;4.70;1.00;;;14.30;99.90;;;;;;4891699;29;20263;-74
2023/11/13 10:57:46;;;;;;;3.27;1.07;;;14.30;99.90;;;;;;4876806;29;20710;-76
2023/11/13 11:00:16;;;;;;;1.70;1.00;;;14.30;99.90;;;;;;4877765;29;20218;-73
2023/11/13 11:02:45;;;;;;;4.73;1.30;;;14.30;99.90;;;;;;4877894;29;20219;-74
2023/11/13 11:05:20;;;;;;;6.70;1.27;;;14.30;99.90;;;;;;4894639;29;20711;-73
2023/11/13 11:07:51;;;;;;;2.23;0.80;;;14.30;99.90;;;;;;4896135;29;20635;-73
2023/11/13 11:10:24;;;;;;;4.70;0.97;;;14.40;99.90;;;;;;4895960;29;20274;-73
2023/11/13 11:12:59;;;;;;;1.70;0.70;;;14.30;99.90;;;;;;4895416;29;20669;-73
2023/11/13 11:15:50;;;;;;;1.73;0.80;;;14.40;99.90;;;;;;4896212;29;20230;-74
2023/11/13 11:18:23;;;;;;;7.03;1.20;;;14.40;99.90;;;;;;4896084;29;20297;-75
2023/11/13 11:21:00;;;;;;;3.43;1.20;;;14.40;99.90;;;;;;4895561;29;20210;-74
2023/11/13 11:23:32;;;;;;;4.80;0.67;;;14.50;99.90;;;;;;4895760;29;20213;-73
2023/11/13 11:26:00;;;;;;;2.80;0.90;;;14.50;99.90;;;;;;4895725;29;20262;-73
2023/11/13 11:28:42;;;;;;;2.70;0.80;;;14.50;99.90;;;;;;4895391;29;20218;-73
2023/11/13 11:31:47;;;;;;;4.93;1.10;;;14.60;99.90;;;;;;4896677;29;20224;-74
2023/11/13 11:34:23;;;;;;;5.27;1.10;;;14.60;99.90;;;;;;4899357;29;20690;-73
2023/11/13 11:36:56;;;;;;;2.23;1.43;;;14.60;99.90;;;;;;4899362;29;20269;-72
2023/11/13 11:39:25;;;;;;;4.83;0.87;;;14.60;99.90;;;;;;4899068;29;20237;-72
2023/11/13 11:41:53;;;;;;;3.63;1.03;;;14.60;99.90;;;;;;4890213;29;20211;-73
2023/11/13 11:44:23;;;;;;;3.47;0.90;;;14.70;99.90;;;;;;4890209;29;20242;-74
2023/11/13 11:46:53;;;;;;;3.03;1.10;;;14.70;99.90;;;;;;4880308;29;20322;-73
2023/11/13 11:49:25;;;;;;;2.77;1.00;;;14.70;99.90;;;;;;4892566;29;20310;-75
2023/11/13 11:51:57;;;;;;;2.40;1.00;;;14.70;99.90;;;;;;4897870;29;20210;-74
2023/11/13 11:54:24;;;;;;;2.17;1.00;;;14.70;99.90;;;;;;4882345;29;20338;-74
2023/11/13 11:56:58;;;;;;;3.83;1.00;;;14.70;99.90;;;;;;4879804;29;20318;-73
2023/11/13 11:59:27;;;;;;;1.90;0.90;;;14.70;99.90;;;;;;4880345;29;20290;-76
2023/11/13 12:01:56;;;;;;;3.20;0.80;;;14.80;99.90;;;;;;4880754;29;20223;-76
2023/11/13 12:04:23;;;;;;;3.00;0.80;;;14.80;99.90;;;;;;4882047;29;20211;-79
2023/11/13 12:06:52;;;;;;;2.80;0.80;;;14.80;99.90;;;;;;4881477;29;20231;-75
2023/11/13 12:09:20;;;;;;;1.73;1.00;;;14.80;99.90;;;;;;4881430;29;20219;-74
2023/11/13 12:11:49;;;;;;;2.40;0.93;;;14.80;99.90;;;;;;4881681;29;20215;-75
2023/11/13 12:14:17;;;;;;;4.03;1.00;;;14.80;99.90;;;;;;4881595;29;20261;-76
2023/11/13 12:16:44;;;;;;;3.57;1.10;;;14.80;99.90;;;;;;4881331;29;20278;-73
2023/11/13 12:19:13;;;;;;;2.27;1.63;;;14.80;99.90;;;;;;4881574;29;20289;-75
2023/11/13 12:21:43;;;;;;;2.60;0.77;;;14.80;99.90;;;;;;4881212;29;20223;-74
2023/11/13 12:24:10;;;;;;;2.37;0.60;;;14.80;99.90;;;;;;4881242;29;20243;-76
2023/11/13 12:26:39;;;;;;;3.50;0.90;;;14.90;99.90;;;;;;4881024;29;20235;-73
2023/11/13 12:29:14;;;;;;;3.50;1.10;;;14.90;99.90;;;;;;4881099;29;20215;-76
2023/11/13 12:31:41;;;;;;;1.63;0.60;;;15.00;99.90;;;;;;4880904;29;20670;-75
2023/11/13 12:34:08;;;;;;;1.10;0.60;;;15.00;99.90;;;;;;4880904;29;20211;-73
2023/11/13 12:36:38;;;;;;;1.10;0.70;;;15.00;99.90;;;;;;4880979;29;20239;-73
2023/11/13 12:39:07;;;;;;;1.07;0.50;;;15.00;99.90;;;;;;4880735;29;20246;-74
2023/11/13 12:41:35;;;;;;;1.67;0.50;;;15.00;99.90;;;;;;4881198;29;20211;-72
2023/11/13 12:44:05;;;;;;;3.07;0.63;;;15.10;99.90;;;;;;4879840;29;20217;-73
2023/11/13 12:46:32;;;;;;;1.47;0.47;;;15.20;99.90;;;;;;4880785;29;20242;-72
2023/11/13 12:48:59;;;;;;;1.60;0.50;;;15.20;99.90;;;;;;4881115;29;20219;-73
2023/11/13 12:51:29;;;;;;;3.07;0.70;;;15.20;99.90;;;;;;4880713;29;20595;-72
2023/11/13 12:53:57;;;;;;;1.37;0.77;;;15.20;99.90;;;;;;4881046;29;20215;-78
2023/11/13 12:56:25;;;;;;;3.27;1.40;;;15.30;99.90;;;;;;4880648;29;20622;-73
2023/11/13 12:58:54;;;;;;;4.97;1.23;;;15.30;99.90;;;;;;4880463;29;20207;-76
2023/11/13 13:01:21;;;;;;;4.40;0.50;;;15.30;99.90;;;;;;4880835;29;20215;-76
2023/11/13 13:03:49;;;;;;;1.63;0.50;;;15.10;99.90;;;;;;4880491;29;20734;-78
2023/11/13 13:06:16;;;;;;;2.17;0.30;;;15.00;99.90;;;;;;4880611;29;20235;-73
2023/11/13 13:08:43;;;;;;;0.90;0.57;;;15.00;99.90;;;;;;4880434;29;20338;-78
2023/11/13 13:11:14;;;;;;;2.13;1.27;;;15.00;99.90;;;;;;4880618;29;20215;-77
2023/11/13 13:13:42;;;;;;;2.40;0.60;;;14.90;99.90;;;;;;4880454;29;20215;-74
2023/11/13 13:16:13;;;;;;;2.27;0.90;;;14.80;99.90;;;;;;4880722;29;20243;-73
2023/11/13 13:18:40;;;;;;;1.00;0.80;;;14.70;99.90;;;;;;4880386;29;20720;-75
2023/11/13 13:21:10;;;;;;;1.23;0.60;;;14.70;99.90;;;;;;4880515;29;20245;-74
2023/11/13 13:23:37;;;;;;;1.53;0.40;;;14.60;99.90;;;;;;4880283;29;20254;-77
2023/11/13 13:26:05;;;;;;;1.57;0.90;;;14.60;99.90;;;;;;4880214;29;20235;-77
2023/11/13 13:28:35;;;;;;;1.00;0.50;;;14.60;99.90;;;;;;4880378;29;20222;-74
2023/11/13 13:31:02;;;;;;;1.83;0.40;;;14.60;99.90;;;;;;4880565;29;20207;-75
2023/11/13 13:33:29;;;;;;;1.07;0.40;;;14.50;99.90;;;;;;4880180;29;20214;-76
2023/11/13 13:35:58;;;;;;;1.17;0.40;;;14.40;99.90;;;;;;4879919;29;20246;-76
2023/11/13 13:38:25;;;;;;;4.33;1.70;;;14.50;99.90;;;;;;4879678;29;20333;-75
2023/11/13 13:40:51;;;;;;;1.77;0.70;;;14.40;99.90;;;;;;4879624;29;20236;-72
2023/11/13 13:43:18;;;;;;;1.70;0.63;;;14.40;99.90;;;;;;4879943;29;20215;-76
2023/11/13 13:45:52;;;;;;;2.20;1.00;;;14.30;99.90;;;;;;4879880;29;20231;-75
2023/11/13 13:48:19;;;;;;;1.33;0.30;;;14.40;99.90;;;;;;4879667;29;20574;-76
2023/11/13 13:50:47;;;;;;;0.40;0.20;;;14.30;99.90;;;;;;4879916;29;20302;-74
2023/11/13 13:53:15;;;;;;;1.23;0.50;;;14.30;99.90;;;;;;4879648;29;20260;-77
2023/11/13 13:55:43;;;;;;;0.90;0.50;;;14.20;99.90;;;;;;4879839;29;20239;-76
2023/11/13 13:58:12;;;;;;;1.33;0.30;;;14.20;99.90;;;;;;4879952;29;20235;-76
2023/11/13 14:00:39;;;;;;;1.93;0.80;;;14.10;99.90;;;;;;4879763;29;20215;-75
2023/11/13 14:03:08;;;;;;;1.87;0.47;;;14.20;99.90;;;;;;4879217;29;20250;-72
2023/11/13 14:05:36;;;;;;;0.93;0.47;;;14.20;99.90;;;;;;4879315;29;20230;-76
2023/11/13 14:08:03;;;;;;;1.20;0.70;;;14.10;99.90;;;;;;4879209;29;20226;-79
2023/11/13 14:10:34;;;;;;;3.27;0.50;;;14.20;99.90;;;;;;4879723;29;20211;-78
2023/11/13 14:13:04;;;;;;;0.70;0.33;;;14.20;99.90;;;;;;4879130;29;20215;-73
2023/11/13 14:15:31;;;;;;;1.53;0.40;;;14.20;99.90;;;;;;4879411;29;20231;-77
2023/11/13 14:17:58;;;;;;;0.83;0.23;;;14.20;99.90;;;;;;4879364;29;20270;-78
2023/11/13 14:20:27;;;;;;;1.33;0.40;;;14.30;99.90;;;;;;4879175;29;20290;-75
2023/11/13 14:22:56;;;;;;;1.90;0.50;;;14.30;99.90;;;;;;4879424;29;20571;-74
2023/11/13 14:25:23;;;;;;;1.47;0.50;;;14.30;99.90;;;;;;4879389;29;20231;-73
2023/11/13 14:27:52;;;;;;;1.03;0.50;;;14.40;99.90;;;;;;4879518;29;20271;-74
2023/11/13 14:30:20;;;;;;;3.50;0.60;;;14.30;99.90;;;;;;4879055;29;20655;-74
2023/11/13 14:32:47;;;;;;;1.40;0.67;;;14.30;99.90;;;;;;4879028;29;20327;-74
2023/11/13 14:35:15;;;;;;;6.40;0.80;;;14.30;99.90;;;;;;4879332;29;20294;-73
2023/11/13 14:37:43;;;;;;;2.20;0.50;;;14.20;99.90;;;;;;4879231;29;20235;-73
2023/11/13 14:40:13;;;;;;;3.50;0.40;;;14.10;99.90;;;;;;4878995;29;20571;-73
2023/11/13 14:42:40;;;;;;;6.57;1.20;;;14.00;99.90;;;;;;4879160;29;20225;-73
2023/11/13 14:45:11;;;;;;;5.13;0.90;;;14.00;99.90;;;;;;4879049;29;20231;-74
2023/11/13 14:47:38;;;;;;;2.43;0.73;;;14.00;99.90;;;;;;4879110;29;20215;-74
2023/11/13 14:50:07;;;;;;;3.03;0.73;;;14.00;99.90;;;;;;4879235;29;20211;-74
2023/11/13 14:52:34;;;;;;;1.07;0.47;;;13.90;99.90;;;;;;4879170;29;20207;-76
2023/11/13 14:55:03;;;;;;;6.57;0.77;;;13.90;99.90;;;;;;4878931;29;20322;-73
2023/11/13 14:57:30;;;;;;;4.53;0.73;;;13.90;99.90;;;;;;4879098;29;20238;-71
2023/11/13 14:59:57;;;;;;;3.73;0.90;;;13.80;99.90;;;;;;4878971;29;20211;-73
2023/11/13 15:02:24;;;;;;;4.20;0.93;;;13.80;99.90;;;;;;4879355;29;20215;-73
2023/11/13 15:04:51;;;;;;;7.13;1.40;;;13.80;99.90;;;;;;4879716;29;20227;-74
2023/11/13 15:07:20;;;;;;;5.57;1.97;;;13.70;99.90;;;;;;4881376;29;20759;-76
2023/11/13 15:09:47;;;;;;;11.07;1.10;;;13.70;99.90;;;;;;4882420;29;20770;-72
2023/11/13 15:12:15;;;;;;;3.27;1.10;;;13.70;99.90;;;;;;4882242;29;20215;-73
2023/11/13 15:14:42;;;;;;;4.97;0.87;;;13.60;99.90;;;;;;4882155;29;20207;-74
2023/11/13 15:17:12;;;;;;;9.80;1.10;;;13.60;99.90;;;;;;4882397;29;20563;-73
2023/11/13 15:19:39;;;;;;;5.73;0.90;;;13.50;99.90;;;;;;4882246;29;20663;-75
2023/11/13 15:22:06;;;;;;;10.27;1.20;;;13.40;99.90;;;;;;4882314;29;20287;-74
2023/11/13 15:24:33;;;;;;;3.50;1.00;;;13.30;99.90;;;;;;4882204;29;20220;-74
2023/11/13 15:27:00;;;;;;;4.73;0.90;;;13.30;99.90;;;;;;4882279;29;20219;-75
2023/11/13 15:29:29;;;;;;;6.00;1.03;;;13.20;99.90;;;;;;4881791;29;20674;-74
2023/11/13 15:31:56;;;;;;;8.33;1.23;;;13.10;99.90;;;;;;4881973;29;20678;-72
2023/11/13 15:34:24;;;;;;;6.33;1.00;;;13.10;99.90;;;;;;4882025;29;20240;-73
2023/11/13 15:36:51;;;;;;;7.87;1.10;;;13.00;99.90;;;;;;4880949;29;20774;-72
2023/11/13 15:39:18;;;;;;;7.77;1.10;;;13.00;99.90;;;;;;4881729;29;20239;-73
2023/11/13 15:41:45;;;;;;;9.93;1.23;;;12.90;99.90;;;;;;4881766;29;20571;-75
2023/11/13 15:44:12;;;;;;;10.97;3.40;;;12.90;99.90;;;;;;4881903;29;20242;-74
2023/11/13 15:46:42;;;;;;;5.40;1.17;;;12.80;99.90;;;;;;4881349;29;20318;-74
2023/11/13 15:49:10;;;;;;;4.60;1.10;;;12.80;99.90;;;;;;4881095;29;20239;-73
2023/11/13 15:51:37;;;;;;;14.90;4.70;;;12.80;99.90;;;;;;4880989;29;20285;-76
2023/11/13 15:54:04;;;;;;;5.53;1.90;;;12.70;99.90;;;;;;4881486;29;20218;-72
2023/11/13 15:56:31;;;;;;;10.43;1.40;;;12.80;99.90;;;;;;4881979;29;20291;-74
2023/11/13 15:58:58;;;;;;;7.00;1.30;;;12.80;99.90;;;;;;4882207;29;20243;-73
2023/11/13 16:01:25;;;;;;;4.97;1.13;;;12.70;99.90;;;;;;4881496;29;20675;-75
2023/11/13 16:03:53;;;;;;;7.33;1.60;;;12.70;99.90;;;;;;4881785;29;20214;-74
2023/11/13 16:06:20;;;;;;;7.50;1.23;;;12.70;99.90;;;;;;4881575;29;20235;-74
2023/11/13 16:08:47;;;;;;;12.23;2.37;;;12.70;99.90;;;;;;4881426;29;20250;-73
2023/11/13 16:11:14;;;;;;;9.47;1.50;;;12.70;99.90;;;;;;4881351;29;20663;-75
2023/11/13 16:13:44;;;;;;;8.70;1.43;;;12.70;99.90;;;;;;4881333;29;20667;-75
2023/11/13 16:16:11;;;;;;;11.63;1.40;;;12.70;99.90;;;;;;4880971;29;20235;-77
2023/11/13 16:18:38;;;;;;;9.87;2.83;;;12.70;99.90;;;;;;4881030;29;20238;-75
2023/11/13 16:21:07;;;;;;;8.57;1.53;;;12.60;99.90;;;;;;4881388;29;20701;-75
2023/11/13 16:23:36;;;;;;;5.17;1.67;;;12.60;99.90;;;;;;4881524;29;20218;-73
2023/11/13 16:26:04;;;;;;;10.03;1.57;;;12.50;99.90;;;;;;4881287;29;20227;-76
2023/11/13 16:28:32;;;;;;;6.13;1.50;;;12.40;99.90;;;;;;4881143;29;20723;-77
2023/11/13 16:30:59;;;;;;;10.73;1.90;;;12.50;99.90;;;;;;4881308;29;20239;-73
2023/11/13 16:33:26;;;;;;;11.13;1.73;;;12.50;99.90;;;;;;4881465;29;20222;-75
2023/11/13 16:35:53;;;;;;;6.60;1.37;;;12.50;99.90;;;;;;4881172;29;20231;-71
2023/11/13 16:38:22;;;;;;;10.23;1.37;;;12.50;99.90;;;;;;4880976;29;20307;-73
2023/11/13 16:40:49;;;;;;;6.40;1.30;;;12.40;99.90;;;;;;4879779;29;20263;-76
2023/11/13 16:43:15;;;;;;;9.30;1.03;;;12.50;99.90;;;;;;4881099;29;20207;-75
2023/11/13 16:45:43;;;;;;;9.43;1.40;;;12.50;99.90;;;;;;4880995;29;20290;-75
2023/11/13 16:48:10;;;;;;;8.17;1.60;;;12.50;99.90;;;;;;4879578;29;20218;-74
2023/11/13 16:50:39;;;;;;;10.53;1.43;;;12.40;99.90;;;;;;4881150;29;20631;-74
2023/11/13 16:53:09;;;;;;;14.93;1.63;;;12.50;99.90;;;;;;4880967;29;20283;-75
2023/11/13 16:55:37;;;;;;;11.07;1.40;;;12.50;99.90;;;;;;4880727;29;20714;-72
2023/11/13 16:58:05;;;;;;;13.60;1.50;;;12.50;99.90;;;;;;4881021;29;20749;-72
2023/11/13 17:00:31;;;;;;;13.40;1.60;;;12.40;99.90;;;;;;4880870;29;20222;-74
2023/11/13 17:02:58;;;;;;;10.73;1.40;;;12.40;99.90;;;;;;4880591;29;20214;-75
2023/11/13 17:05:25;;;;;;;8.63;1.27;;;12.40;99.90;;;;;;4880497;29;20318;-72
2023/11/13 17:07:53;;;;;;;12.83;2.17;;;12.30;99.90;;;;;;4876406;29;20678;-78
2023/11/13 17:10:20;;;;;;;7.90;1.57;;;12.30;99.90;;;;;;4878654;29;20211;-70
2023/11/13 17:12:48;;;;;;;9.23;1.20;;;12.20;99.90;;;;;;4879024;29;20302;-70
2023/11/13 17:15:15;;;;;;;14.33;2.40;;;12.30;99.90;;;;;;4878091;29;20326;-71
2023/11/13 17:17:42;;;;;;;8.70;1.20;;;12.30;99.90;;;;;;4893657;29;20298;-71
2023/11/13 17:20:11;;;;;;;7.03;1.40;;;12.30;99.90;;;;;;4896477;29;20217;-70
2023/11/13 17:22:37;;;;;;;9.13;1.53;;;12.20;99.90;;;;;;4895576;29;20297;-80
2023/11/13 17:25:08;;;;;;;15.20;1.50;;;12.20;99.90;;;;;;4897293;29;20341;-72
2023/11/13 17:27:35;;;;;;;11.13;1.10;;;12.20;99.90;;;;;;4896515;29;20520;-70
2023/11/13 17:30:04;;;;;;;11.27;1.17;;;12.20;99.90;;;;;;4896098;29;20300;-71
2023/11/13 17:32:31;;;;;;;10.03;1.50;;;12.20;99.90;;;;;;4897433;29;20240;-71
2023/11/13 17:34:58;;;;;;;4.37;1.40;;;12.20;99.90;;;;;;4897379;29;20287;-74
2023/11/13 17:37:26;;;;;;;13.20;1.83;;;12.30;99.90;;;;;;4895950;29;20210;-70
2023/11/13 17:39:53;;;;;;;8.47;1.33;;;12.30;99.90;;;;;;4896918;29;20242;-81
2023/11/13 17:42:21;;;;;;;11.57;1.97;;;12.20;99.90;;;;;;4896795;29;20670;-70
2023/11/13 17:44:48;;;;;;;9.17;2.10;;;12.20;99.90;;;;;;4896448;29;20290;-80
2023/11/13 17:47:17;;;;;;;14.90;2.23;;;12.10;99.90;;;;;;4896805;29;20211;-81
2023/11/13 17:49:46;;;;;;;8.93;1.87;;;12.10;99.90;;;;;;4896962;29;20261;-79
2023/11/13 17:52:14;;;;;;;12.03;1.57;;;12.10;99.90;;;;;;4896334;29;20214;-70
2023/11/13 17:54:42;;;;;;;9.80;1.43;;;12.10;99.90;;;;;;4897236;29;20215;-70
2023/11/13 17:57:12;;;;;;;4.80;1.23;;;12.10;99.90;;;;;;4896171;29;20710;-72
2023/11/13 17:59:39;;;;;;;7.80;1.00;;;12.00;99.90;;;;;;4895961;29;20241;-79
2023/11/13 18:02:07;;;;;;;17.60;1.67;;;12.00;99.90;;;;;;4896291;29;20221;-71
2023/11/13 18:04:36;;;;;;;7.73;1.60;;;12.00;99.90;;;;;;4896046;29;20210;-80
2023/11/13 18:07:03;;;;;;;7.10;1.50;;;11.90;99.90;;;;;;4895327;29;20302;-75
2023/11/13 18:09:30;;;;;;;9.60;1.20;;;11.90;99.90;;;;;;4893234;29;20222;-71
2023/11/13 18:11:58;;;;;;;7.47;1.10;;;11.90;99.90;;;;;;4894967;29;20301;-71
2023/11/13 18:14:28;;;;;;;4.23;1.20;;;11.90;99.90;;;;;;4892589;29;20211;-75
2023/11/13 18:16:56;;;;;;;9.77;1.03;;;11.90;99.90;;;;;;4890562;29;20721;-71
2023/11/13 18:19:23;;;;;;;6.03;1.27;;;11.80;99.90;;;;;;4895822;29;20234;-80
2023/11/13 18:21:51;;;;;;;11.80;1.40;;;11.80;99.90;;;;;;4895723;29;20210;-71
2023/11/13 18:24:18;;;;;;;8.43;1.47;;;11.80;99.90;;;;;;4895739;29;20214;-73
2023/11/13 18:26:45;;;;;;;13.30;1.77;;;11.80;99.90;;;;;;4895924;29;20293;-71
2023/11/13 18:29:13;;;;;;;8.20;1.63;;;11.80;99.90;;;;;;4882054;29;20734;-71
2023/11/13 18:31:40;;;;;;;6.23;1.20;;;11.80;99.90;;;;;;4884431;29;20242;-78
2023/11/13 18:34:07;;;;;;;9.00;1.43;;;11.90;99.90;;;;;;4895255;29;20313;-76
2023/11/13 18:36:34;;;;;;;10.47;1.90;;;11.90;99.90;;;;;;4889825;29;20223;-71
2023/11/13 18:39:05;;;;;;;9.33;1.07;;;11.90;99.90;;;;;;4893722;29;20298;-72
2023/11/13 18:41:32;;;;;;;7.60;1.70;;;11.90;99.90;;;;;;4894688;29;20210;-71
2023/11/13 18:43:59;;;;;;;11.63;1.57;;;11.90;99.90;;;;;;4895274;29;20214;-71
2023/11/13 18:46:26;;;;;;;8.23;1.40;;;11.90;99.90;;;;;;4881838;29;20234;-71
2023/11/13 18:48:56;;;;;;;9.47;1.60;;;11.80;99.90;;;;;;4895362;29;20242;-71
2023/11/13 18:51:23;;;;;;;9.60;1.43;;;11.70;99.90;;;;;;4895177;29;20619;-71
2023/11/13 18:53:50;;;;;;;6.23;1.63;;;11.70;99.90;;;;;;4895247;29;20218;-77
2023/11/13 18:56:21;;;;;;;6.47;1.00;;;11.70;99.90;;;;;;4894947;29;20261;-78
2023/11/13 18:58:48;;;;;;;7.77;1.77;;;11.80;99.90;;;;;;4888823;29;20718;-76
2023/11/13 19:01:17;;;;;;;7.47;1.50;;;11.90;99.90;;;;;;4894823;29;20306;-71
2023/11/13 19:03:45;;;;;;;8.73;1.90;;;11.90;99.90;;;;;;4882340;29;20733;-70
2023/11/13 19:06:12;;;;;;;9.07;1.47;;;11.90;99.90;;;;;;4888004;29;20241;-73
2023/11/13 19:08:39;;;;;;;7.53;1.10;;;11.90;99.90;;;;;;4884175;29;20254;-71
2023/11/13 19:11:06;;;;;;;7.70;1.50;;;11.90;99.90;;;;;;4895154;29;20329;-71
2023/11/13 19:13:35;;;;;;;5.50;1.20;;;11.90;99.90;;;;;;4894458;29;20305;-79
2023/11/13 19:16:01;;;;;;;7.03;1.40;;;11.90;99.90;;;;;;4894382;29;20230;-71
2023/11/13 19:18:29;;;;;;;4.80;1.37;;;11.90;99.90;;;;;;4895689;29;20330;-76
2023/11/13 19:20:56;;;;;;;8.13;1.80;;;11.90;99.90;;;;;;4894178;29;20210;-71
2023/11/13 19:23:23;;;;;;;8.57;1.13;;;11.80;99.90;;;;;;4883364;29;20300;-71
2023/11/13 19:25:50;;;;;;;7.13;1.60;;;11.80;99.90;;;;;;4894234;29;20260;-71
2023/11/13 19:28:17;;;;;;;8.27;1.30;;;11.80;99.90;;;;;;4893774;29;20215;-70
2023/11/13 19:30:45;;;;;;;9.33;1.17;;;11.80;99.90;;;;;;4882366;29;20686;-74
2023/11/13 19:33:14;;;;;;;8.50;1.57;;;11.80;99.90;;;;;;4896290;29;20654;-72
2023/11/13 19:35:42;;;;;;;9.33;1.40;;;11.90;99.90;;;;;;4895210;29;20749;-70
2023/11/13 19:38:08;;;;;;;13.47;2.80;;;11.80;99.90;;;;;;4895916;29;20206;-70
2023/11/13 19:40:37;;;;;;;5.77;1.17;;;11.80;99.90;;;;;;4895655;29;20282;-70
2023/11/13 19:43:05;;;;;;;13.53;1.20;;;11.80;99.90;;;;;;4896385;29;20203;-74
2023/11/13 19:45:34;;;;;;;14.97;1.50;;;11.80;99.90;;;;;;4892586;29;20258;-73
2023/11/13 19:48:03;;;;;;;12.93;1.60;;;11.80;99.90;;;;;;4896047;29;20217;-77
2023/11/13 19:50:34;;;;;;;10.53;1.20;;;11.80;99.90;;;;;;4895615;29;20682;-76
2023/11/13 19:53:01;;;;;;;9.53;1.50;;;11.80;99.90;;;;;;4886306;29;20257;-73
2023/11/13 19:55:27;;;;;;;15.27;2.13;;;11.80;99.90;;;;;;4898295;29;20241;-75
2023/11/13 19:57:55;;;;;;;12.23;2.20;;;11.80;99.90;;;;;;4899277;29;20231;-74
2023/11/13 20:00:22;;;;;;;12.47;2.03;;;11.70;99.90;;;;;;4899511;29;20797;-72
2023/11/13 20:02:51;;;;;;;9.43;1.50;;;11.70;99.90;;;;;;4898195;29;20214;-72
2023/11/13 20:05:19;;;;;;;10.47;1.43;;;11.70;99.90;;;;;;4896410;29;20238;-72
2023/11/13 20:07:46;;;;;;;7.33;1.20;;;11.70;99.90;;;;;;4899021;29;20209;-75
2023/11/13 20:10:13;;;;;;;13.93;1.33;;;11.60;99.90;;;;;;4899249;29;20231;-79
2023/11/13 20:12:40;;;;;;;9.20;1.30;;;11.60;99.90;;;;;;4899618;29;20290;-79
2023/11/13 20:15:08;;;;;;;5.67;0.90;;;11.50;99.90;;;;;;4899662;29;20230;-78
2023/11/13 20:17:35;;;;;;;4.40;0.87;;;11.50;99.90;;;;;;4899571;29;20615;-73
2023/11/13 20:20:02;;;;;;;9.07;1.30;;;11.50;99.90;;;;;;4899240;29;20603;-73
2023/11/13 20:22:30;;;;;;;6.83;1.20;;;11.50;99.90;;;;;;4898667;29;20242;-73
2023/11/13 20:24:57;;;;;;;5.87;1.23;;;11.50;99.90;;;;;;4898812;29;20246;-72
2023/11/13 20:27:24;;;;;;;14.43;1.40;;;11.50;99.90;;;;;;4899454;29;20296;-74
2023/11/13 20:29:51;;;;;;;14.03;1.80;;;11.50;99.90;;;;;;4899324;29;20211;-73
2023/11/13 20:32:17;;;;;;;7.80;1.57;;;11.50;99.90;;;;;;4886984;29;20233;-75
2023/11/13 20:34:44;;;;;;;9.10;1.33;;;11.60;99.90;;;;;;4898719;29;20210;-76
2023/11/13 20:37:11;;;;;;;6.50;2.40;;;11.50;99.90;;;;;;4889848;29;20219;-72
2023/11/13 20:39:40;;;;;;;11.30;2.33;;;11.50;99.90;;;;;;4886478;29;20329;-73
2023/11/13 20:42:07;;;;;;;13.07;1.37;;;11.50;99.90;;;;;;4899149;29;20559;-75
2023/11/13 20:44:34;;;;;;;11.07;1.37;;;11.50;99.90;;;;;;4886344;29;20250;-71
2023/11/13 20:47:01;;;;;;;10.67;2.03;;;11.50;99.90;;;;;;4898798;29;20757;-73
2023/11/13 20:49:28;;;;;;;10.77;1.20;;;11.50;99.90;;;;;;4898973;29;20210;-74
2023/11/13 20:51:55;;;;;;;7.13;1.20;;;11.50;99.90;;;;;;4898769;29;20211;-72
2023/11/13 20:54:22;;;;;;;7.90;1.00;;;11.40;99.90;;;;;;4898373;29;20730;-73
2023/11/13 20:56:50;;;;;;;8.77;1.07;;;11.40;99.90;;;;;;4898448;29;20278;-74
2023/11/13 20:59:17;;;;;;;10.17;1.43;;;11.40;99.90;;;;;;4898558;29;20333;-71
2023/11/13 21:01:45;;;;;;;4.70;1.10;;;11.50;99.90;;;;;;4898941;29;20211;-78
2023/11/13 21:04:13;;;;;;;5.70;1.17;;;11.50;99.90;;;;;;4897974;29;20217;-71
2023/11/13 21:06:43;;;;;;;8.00;1.33;;;11.50;99.90;;;;;;4899125;29;20761;-72
2023/11/13 21:09:10;;;;;;;12.97;1.57;;;11.50;99.90;;;;;;4898405;29;20582;-71
2023/11/13 21:11:37;;;;;;;11.40;1.37;;;11.40;99.90;;;;;;4890700;29;20234;-73
2023/11/13 21:14:06;;;;;;;9.23;1.63;;;11.40;99.90;;;;;;4889014;29;20234;-72
2023/11/13 21:16:33;;;;;;;9.23;2.63;;;11.30;99.90;;;;;;4897936;29;20317;-71
2023/11/13 21:18:59;;;;;;;14.43;1.87;;;11.30;99.90;;;;;;4898085;29;20208;-72
2023/11/13 21:21:26;;;;;;;11.83;1.63;;;11.30;99.90;;;;;;4897795;29;20210;-72
2023/11/13 21:23:53;;;;;;;4.80;1.10;;;11.30;99.90;;;;;;4898076;29;20262;-71
2023/11/13 21:26:20;;;;;;;5.60;0.97;;;11.30;99.90;;;;;;4897983;29;20693;-74
2023/11/13 21:28:48;;;;;;;8.47;1.53;;;11.30;99.90;;;;;;4898055;29;20670;-71
2023/11/13 21:31:16;;;;;;;5.43;0.97;;;11.30;99.90;;;;;;4898342;29;20229;-73
2023/11/13 21:33:43;;;;;;;10.17;1.47;;;11.30;99.90;;;;;;4898189;29;20206;-76
2023/11/13 21:36:10;;;;;;;11.83;1.37;;;11.30;99.90;;;;;;4893564;29;20590;-77
2023/11/13 21:38:39;;;;;;;9.10;1.23;;;11.20;99.90;;;;;;4889802;29;20210;-77
2023/11/13 21:41:08;;;;;;;8.30;1.77;;;11.30;99.90;;;;;;4894702;29;20234;-77
2023/11/13 21:43:35;;;;;;;11.13;1.73;;;11.30;99.90;;;;;;4886407;29;20582;-77
2023/11/13 21:46:03;;;;;;;9.83;1.73;;;11.40;99.90;;;;;;4897212;29;20249;-72
2023/11/13 21:48:31;;;;;;;8.77;1.00;;;11.50;99.90;;;;;;4897910;29;20214;-78
2023/11/13 21:50:58;;;;;;;10.80;1.10;;;11.50;99.90;;;;;;4897570;29;20207;-71
2023/11/13 21:53:26;;;;;;;5.07;1.00;;;11.50;99.90;;;;;;4897910;29;20216;-76
2023/11/13 21:55:53;;;;;;;10.93;1.10;;;11.40;99.90;;;;;;4890648;29;20230;-77
2023/11/13 21:58:20;;;;;;;11.07;1.00;;;11.40;99.90;;;;;;4879937;29;20298;-74